Time;durP1;ratioP1;P1;durP2;ratioP2;P2;SDS_P1;SDS_P2;PMS_P1;PMS_P2;Temp;Humidity;BMP_temperature;BMP_pressure;BME280_temperature;BME280_humidity;BME280_pressure;Samples;Min_cycle;Max_cycle;Signal;HPM_P1;HPM_P2
2022/05/28 00:00:35;;;;;;;7.73;1.60;;;10.10;99.90;;;;;;5074957;28;20210;-70
2022/05/28 00:03:01;;;;;;;6.23;1.10;;;10.10;99.90;;;;;;5075062;28;20206;-71
2022/05/28 00:05:27;;;;;;;3.97;1.37;;;10.10;99.90;;;;;;5075003;28;20210;-70
2022/05/28 00:07:52;;;;;;;7.43;1.20;;;10.10;99.90;;;;;;5085706;28;20261;-70
2022/05/28 00:10:19;;;;;;;5.77;1.20;;;10.20;99.90;;;;;;5074664;28;20206;-70
2022/05/28 00:12:45;;;;;;;8.27;1.87;;;10.10;99.90;;;;;;5093164;28;20651;-70
2022/05/28 00:15:12;;;;;;;6.07;1.40;;;10.10;99.90;;;;;;5074919;28;20617;-70
2022/05/28 00:17:37;;;;;;;4.93;1.40;;;10.10;99.90;;;;;;5092853;28;20210;-71
2022/05/28 00:20:06;;;;;;;4.90;1.63;;;10.10;99.90;;;;;;5074420;28;20204;-71
2022/05/28 00:22:43;;;;;;;6.60;1.93;;;10.10;99.90;;;;;;5075031;28;20202;-71
2022/05/28 00:25:11;;;;;;;5.40;1.50;;;10.10;99.90;;;;;;5074992;28;20205;-72
2022/05/28 00:27:37;;;;;;;4.23;1.57;;;10.10;99.90;;;;;;5074526;28;20206;-72
2022/05/28 00:30:05;;;;;;;5.37;1.40;;;10.20;99.90;;;;;;5091975;28;20727;-71
2022/05/28 00:32:30;;;;;;;6.27;1.90;;;10.20;99.90;;;;;;5074430;28;20222;-71
2022/05/28 00:34:56;;;;;;;9.80;2.40;;;10.20;99.90;;;;;;5093384;28;20679;-70
2022/05/28 00:37:22;;;;;;;6.40;2.00;;;10.10;99.90;;;;;;5067026;28;20218;-70
2022/05/28 00:39:48;;;;;;;4.70;1.70;;;10.00;99.90;;;;;;5073698;28;20206;-71
2022/05/28 00:42:13;;;;;;;5.10;1.70;;;10.10;99.90;;;;;;5074432;28;20213;-71
2022/05/28 00:44:39;;;;;;;6.47;1.87;;;10.10;99.90;;;;;;5092397;28;20214;-70
2022/05/28 00:47:05;;;;;;;5.07;1.40;;;10.10;99.90;;;;;;5092390;28;20170;-70
2022/05/28 00:49:32;;;;;;;5.60;1.60;;;10.10;99.90;;;;;;5073693;28;20197;-70
2022/05/28 00:52:00;;;;;;;7.57;1.87;;;10.10;99.90;;;;;;5092242;28;20218;-70
2022/05/28 00:54:32;;;;;;;10.00;1.93;;;10.00;99.90;;;;;;5073016;28;20368;-70
2022/05/28 00:56:59;;;;;;;8.30;1.63;;;10.00;99.90;;;;;;5074000;28;20198;-70
2022/05/28 00:59:24;;;;;;;9.73;1.67;;;10.10;99.90;;;;;;5091222;28;20710;-70
2022/05/28 01:01:54;;;;;;;7.83;1.80;;;10.10;99.90;;;;;;5092757;28;20174;-70
2022/05/28 01:04:29;;;;;;;11.50;2.57;;;10.10;99.90;;;;;;5073922;28;20214;-71
2022/05/28 01:07:40;;;;;;;7.33;2.10;;;10.10;99.90;;;;;;5069800;28;20210;-70
2022/05/28 01:10:17;;;;;;;7.87;1.80;;;10.00;99.90;;;;;;5055481;28;20268;-71
2022/05/28 01:13:04;;;;;;;8.53;2.17;;;10.00;99.90;;;;;;5091857;28;20263;-70
2022/05/28 01:15:40;;;;;;;6.77;1.97;;;10.00;99.90;;;;;;5091647;28;20539;-70
2022/05/28 01:18:18;;;;;;;8.33;2.00;;;10.00;99.90;;;;;;5072914;28;20217;-71
2022/05/28 01:20:54;;;;;;;4.13;1.97;;;10.10;99.90;;;;;;5123796;22;20209;-77
2022/05/28 01:23:38;;;;;;;7.97;1.83;;;10.10;99.90;;;;;;5109764;28;20636;-76
2022/05/28 01:26:29;;;;;;;9.40;1.83;;;10.10;99.90;;;;;;5098914;28;20249;-76
2022/05/28 01:29:00;;;;;;;7.77;1.70;;;10.00;99.90;;;;;;5057695;28;20200;-77
2022/05/28 01:31:27;;;;;;;5.63;1.67;;;10.10;99.90;;;;;;5092873;28;20214;-76
2022/05/28 01:33:55;;;;;;;6.67;1.90;;;10.00;99.90;;;;;;5094963;28;20536;-75
2022/05/28 01:36:22;;;;;;;5.67;1.80;;;10.00;99.90;;;;;;5093724;28;20198;-76
2022/05/28 01:38:49;;;;;;;8.50;2.20;;;10.00;99.90;;;;;;5081338;28;20566;-75
2022/05/28 01:41:15;;;;;;;6.00;1.67;;;10.00;99.90;;;;;;5090082;28;20582;-75
2022/05/28 01:43:45;;;;;;;5.23;2.17;;;10.00;99.90;;;;;;5090548;28;20217;-75
2022/05/28 01:46:13;;;;;;;9.67;2.10;;;10.00;99.90;;;;;;5090139;28;20302;-75
2022/05/28 01:48:41;;;;;;;7.20;2.03;;;10.00;99.90;;;;;;5089207;28;20233;-76
2022/05/28 01:51:09;;;;;;;9.17;1.80;;;10.00;99.90;;;;;;5091419;28;20656;-76
2022/05/28 01:56:21;;;;;;;9.67;2.10;;;10.00;99.90;;;;;;5091334;28;20208;-77
2022/05/28 01:58:47;;;;;;;7.87;2.13;;;9.90;99.90;;;;;;5098066;28;20611;-75
2022/05/28 02:01:12;;;;;;;7.00;1.83;;;9.90;99.90;;;;;;5089921;28;20198;-78
2022/05/28 02:03:43;;;;;;;9.03;1.77;;;9.90;99.90;;;;;;5091114;28;20206;-76
2022/05/28 02:06:08;;;;;;;7.33;2.43;;;9.90;99.90;;;;;;5089773;28;20210;-76
2022/05/28 02:08:39;;;;;;;10.57;2.00;;;10.00;99.90;;;;;;5081395;28;20685;-76
2022/05/28 02:11:13;;;;;;;5.27;1.63;;;9.90;99.90;;;;;;5089801;28;20213;-76
2022/05/28 02:13:49;;;;;;;7.27;1.60;;;9.90;99.90;;;;;;5090180;28;20182;-76
2022/05/28 02:16:49;;;;;;;6.57;1.73;;;9.90;99.90;;;;;;5091131;28;20705;-76
2022/05/28 02:19:26;;;;;;;7.93;1.97;;;9.90;99.90;;;;;;5088658;28;20289;-76
2022/05/28 02:22:06;;;;;;;8.60;1.90;;;9.90;99.90;;;;;;5077568;28;20935;-76
2022/05/28 02:24:45;;;;;;;9.53;1.87;;;9.90;99.90;;;;;;5077477;28;20210;-76
2022/05/28 02:27:15;;;;;;;7.63;2.17;;;9.80;99.90;;;;;;5069611;28;20355;-76
2022/05/28 02:29:41;;;;;;;11.80;3.47;;;9.80;99.90;;;;;;5069533;28;20585;-75
2022/05/28 02:32:14;;;;;;;6.83;1.80;;;9.80;99.90;;;;;;5070447;28;20825;-76
2022/05/28 02:34:40;;;;;;;12.97;2.77;;;9.80;99.90;;;;;;5069661;28;20673;-76
2022/05/28 02:37:07;;;;;;;7.63;2.27;;;9.80;99.90;;;;;;5069396;28;20202;-76
2022/05/28 02:39:32;;;;;;;7.73;2.33;;;9.80;99.90;;;;;;5067926;28;20210;-78
2022/05/28 02:41:58;;;;;;;7.50;1.70;;;9.80;99.90;;;;;;5070280;28;20538;-76
2022/05/28 02:44:23;;;;;;;6.97;1.83;;;9.80;99.90;;;;;;5069167;28;20203;-76
2022/05/28 02:46:49;;;;;;;7.07;2.17;;;9.80;99.90;;;;;;5079739;28;20543;-75
2022/05/28 02:49:15;;;;;;;6.13;2.17;;;9.80;99.90;;;;;;5069644;28;20269;-76
2022/05/28 02:51:41;;;;;;;9.83;1.93;;;9.80;99.90;;;;;;5070401;28;20215;-76
2022/05/28 02:54:06;;;;;;;10.23;1.90;;;9.80;99.90;;;;;;5074491;28;20588;-76
2022/05/28 02:56:32;;;;;;;8.47;1.60;;;9.90;99.90;;;;;;5068674;28;20286;-75
2022/05/28 02:58:57;;;;;;;6.27;1.73;;;9.90;99.90;;;;;;5070232;28;20168;-75
2022/05/28 03:01:29;;;;;;;8.00;2.37;;;9.80;99.90;;;;;;5070278;28;20191;-76
2022/05/28 03:03:56;;;;;;;3.87;1.60;;;9.80;99.90;;;;;;5070243;28;20198;-76
2022/05/28 03:06:22;;;;;;;9.90;2.43;;;9.90;99.90;;;;;;5068703;28;20282;-74
2022/05/28 03:08:48;;;;;;;10.13;2.23;;;9.90;99.90;;;;;;5069611;28;20572;-76
2022/05/28 03:11:14;;;;;;;7.67;1.80;;;10.00;99.90;;;;;;5068768;28;20191;-76
2022/05/28 03:13:40;;;;;;;5.67;1.70;;;10.00;99.90;;;;;;5070449;28;20228;-76
2022/05/28 03:16:06;;;;;;;7.97;2.10;;;10.00;99.90;;;;;;5078653;28;20706;-74
2022/05/28 03:18:32;;;;;;;7.40;1.80;;;10.00;99.90;;;;;;5071520;28;20199;-76
2022/05/28 03:20:57;;;;;;;7.97;1.80;;;10.00;99.90;;;;;;5073448;28;20215;-76
2022/05/28 03:23:23;;;;;;;6.57;1.43;;;10.10;99.90;;;;;;5079168;28;20579;-76
2022/05/28 03:25:48;;;;;;;7.87;1.53;;;10.10;99.90;;;;;;5073152;28;20213;-75
2022/05/28 03:28:14;;;;;;;9.90;1.70;;;10.10;99.90;;;;;;5072007;28;20253;-76
2022/05/28 03:30:39;;;;;;;9.33;1.90;;;10.10;99.90;;;;;;5071834;28;20269;-76
2022/05/28 03:33:05;;;;;;;8.17;1.60;;;10.00;99.90;;;;;;5072301;28;20722;-75
2022/05/28 03:35:31;;;;;;;5.23;1.57;;;10.10;99.90;;;;;;5072118;28;20198;-75
2022/05/28 03:37:56;;;;;;;8.57;1.90;;;10.10;99.90;;;;;;5073780;28;20190;-76
2022/05/28 03:40:22;;;;;;;9.60;2.00;;;10.20;99.90;;;;;;5071329;28;20222;-74
2022/05/28 03:42:47;;;;;;;8.73;1.93;;;10.20;99.90;;;;;;5072070;28;20219;-76
2022/05/28 03:45:13;;;;;;;6.67;1.90;;;10.20;99.90;;;;;;5073503;28;20203;-76
2022/05/28 03:47:38;;;;;;;9.43;1.83;;;10.30;99.90;;;;;;5071891;28;20211;-75
2022/05/28 03:50:04;;;;;;;6.00;1.87;;;10.50;99.90;;;;;;5071393;28;20553;-76
2022/05/28 03:52:30;;;;;;;8.93;2.17;;;10.60;99.90;;;;;;5079138;28;20682;-76
2022/05/28 03:54:56;;;;;;;7.43;1.50;;;10.60;99.90;;;;;;5078168;28;20194;-76
2022/05/28 03:57:32;;;;;;;6.57;2.03;;;10.50;99.90;;;;;;5075058;28;20256;-74
2022/05/28 03:59:58;;;;;;;8.10;1.83;;;10.60;99.90;;;;;;5071129;28;20251;-77
2022/05/28 04:02:25;;;;;;;5.87;1.60;;;11.00;99.90;;;;;;5071362;28;20199;-76
2022/05/28 04:04:51;;;;;;;6.10;1.77;;;10.90;99.90;;;;;;5072282;28;20190;-76
2022/05/28 04:07:17;;;;;;;3.90;1.83;;;10.70;99.90;;;;;;5071595;28;20195;-76
2022/05/28 04:09:43;;;;;;;4.30;1.50;;;10.70;99.90;;;;;;5071900;28;20199;-76
2022/05/28 04:12:09;;;;;;;7.83;1.83;;;11.00;99.90;;;;;;5071440;28;20211;-76
2022/05/28 04:14:35;;;;;;;9.10;1.90;;;11.20;99.90;;;;;;5072884;28;20707;-76
2022/05/28 04:17:00;;;;;;;4.93;1.70;;;12.00;99.90;;;;;;5072802;28;20178;-76
2022/05/28 04:19:26;;;;;;;7.40;2.50;;;11.60;99.90;;;;;;5072388;28;20272;-76
2022/05/28 04:21:51;;;;;;;7.03;2.20;;;11.40;99.90;;;;;;5069763;28;20374;-76
2022/05/28 04:24:17;;;;;;;8.77;2.40;;;11.20;99.90;;;;;;5088068;28;20211;-76
2022/05/28 04:26:42;;;;;;;7.60;1.80;;;10.90;99.90;;;;;;5072516;28;20282;-77
2022/05/28 04:29:09;;;;;;;6.00;2.10;;;10.70;99.90;;;;;;5071750;28;20252;-77
2022/05/28 04:31:35;;;;;;;9.00;2.10;;;10.60;99.90;;;;;;5072841;28;20609;-76
2022/05/28 04:34:00;;;;;;;7.00;1.67;;;10.60;99.90;;;;;;5071190;28;20223;-77
2022/05/28 04:36:26;;;;;;;5.20;1.87;;;10.50;99.90;;;;;;5070949;28;20199;-77
2022/05/28 04:38:52;;;;;;;7.47;2.33;;;10.60;99.90;;;;;;5071440;28;20203;-76
2022/05/28 04:41:17;;;;;;;9.00;2.60;;;10.50;99.90;;;;;;5082851;28;20185;-77
2022/05/28 04:43:43;;;;;;;5.23;1.67;;;10.40;99.90;;;;;;5093063;28;20179;-77
2022/05/28 04:46:08;;;;;;;7.30;2.53;;;10.10;99.90;;;;;;5092778;28;20289;-76
2022/05/28 04:48:34;;;;;;;8.50;2.10;;;10.10;99.90;;;;;;5090176;28;20226;-77
2022/05/28 04:51:00;;;;;;;7.40;1.93;;;10.10;99.90;;;;;;5092222;28;20571;-77
2022/05/28 04:53:25;;;;;;;7.30;1.70;;;11.00;99.90;;;;;;5092133;28;20206;-77
2022/05/28 04:55:51;;;;;;;3.60;1.20;;;11.10;99.90;;;;;;5083285;28;20158;-76
2022/05/28 04:58:17;;;;;;;6.37;1.53;;;13.70;99.90;;;;;;5090184;28;20545;-76
2022/05/28 05:00:45;;;;;;;3.87;0.90;;;15.30;99.90;;;;;;5090680;28;20213;-76
2022/05/28 05:03:10;;;;;;;8.05;2.75;;;16.90;99.90;;;;;;5082553;28;20206;-76
2022/05/28 05:05:36;;;;;;;1.95;0.85;;;17.10;99.90;;;;;;5090691;28;20229;-76
2022/05/28 05:08:04;;;;;;;4.13;1.17;;;16.10;99.90;;;;;;5091676;28;20638;-76
2022/05/28 05:10:29;;;;;;;3.95;1.23;;;18.60;99.90;;;;;;5090730;28;20194;-77
2022/05/28 05:12:55;;;;;;;2.42;1.00;;;16.80;99.90;;;;;;5090643;28;20216;-76
2022/05/28 05:15:21;;;;;;;4.65;1.45;;;16.00;99.90;;;;;;5092001;28;20748;-77
2022/05/28 05:17:47;;;;;;;5.72;1.25;;;15.50;99.90;;;;;;5090491;28;20194;-76
2022/05/28 05:20:13;;;;;;;4.53;1.35;;;15.00;99.90;;;;;;5091598;28;20208;-76
2022/05/28 05:22:40;;;;;;;4.78;1.25;;;14.50;99.90;;;;;;5090913;28;20178;-76
2022/05/28 05:25:06;;;;;;;2.50;1.13;;;13.50;99.90;;;;;;5091928;28;20226;-76
2022/05/28 05:27:31;;;;;;;5.45;1.40;;;12.90;99.90;;;;;;5090596;28;20753;-76
2022/05/28 05:29:58;;;;;;;7.03;1.40;;;12.40;99.90;;;;;;5089722;28;20236;-75
2022/05/28 05:32:24;;;;;;;2.90;1.13;;;12.30;99.90;;;;;;5090136;28;20221;-75
2022/05/28 05:34:50;;;;;;;2.63;1.17;;;12.20;99.90;;;;;;5090955;28;20183;-75
2022/05/28 05:37:16;;;;;;;3.77;1.43;;;12.50;99.90;;;;;;5083296;28;20835;-76
2022/05/28 05:39:41;;;;;;;3.07;1.10;;;12.50;99.90;;;;;;5088583;28;20214;-75
2022/05/28 05:42:07;;;;;;;6.53;1.30;;;13.00;99.90;;;;;;5089894;28;20248;-75
2022/05/28 05:44:33;;;;;;;2.67;1.00;;;13.00;99.90;;;;;;5091522;28;20225;-77
2022/05/28 05:46:59;;;;;;;3.33;1.07;;;12.70;99.90;;;;;;5090148;28;20182;-77
2022/05/28 05:49:24;;;;;;;5.73;1.53;;;12.60;99.90;;;;;;5091043;28;20190;-75
2022/05/28 05:51:51;;;;;;;4.17;1.50;;;12.40;99.90;;;;;;5090030;28;20206;-76
2022/05/28 05:54:17;;;;;;;2.97;1.07;;;12.30;99.90;;;;;;5091475;28;20205;-76
2022/05/28 05:56:43;;;;;;;5.93;1.17;;;12.00;99.90;;;;;;5089867;28;20198;-76
2022/05/28 05:59:08;;;;;;;2.87;1.00;;;11.80;99.90;;;;;;5090675;28;20213;-77
2022/05/28 06:01:34;;;;;;;6.83;1.40;;;11.80;99.90;;;;;;5090556;28;20192;-76
2022/05/28 06:04:00;;;;;;;3.77;1.20;;;11.60;99.90;;;;;;5091165;28;20210;-77
2022/05/28 06:06:26;;;;;;;4.93;1.07;;;11.70;99.90;;;;;;5091372;28;20204;-77
2022/05/28 06:08:52;;;;;;;3.37;1.37;;;12.30;99.90;;;;;;5082069;28;20269;-77
2022/05/28 06:11:18;;;;;;;2.83;1.17;;;12.30;99.90;;;;;;5090754;28;20285;-77
2022/05/28 06:13:43;;;;;;;3.93;1.27;;;12.20;99.90;;;;;;5090068;28;20179;-77
2022/05/28 06:16:09;;;;;;;4.77;1.70;;;12.20;99.90;;;;;;5091190;28;20206;-77
2022/05/28 06:18:35;;;;;;;4.60;1.43;;;12.30;99.90;;;;;;5090234;28;20681;-76
2022/05/28 06:21:02;;;;;;;4.33;1.20;;;12.90;99.90;;;;;;5090866;28;20301;-77
2022/05/28 06:23:28;;;;;;;4.40;1.30;;;12.60;99.90;;;;;;5089470;28;20221;-77
2022/05/28 06:25:53;;;;;;;8.03;1.87;;;12.50;99.90;;;;;;5090293;28;20174;-77
2022/05/28 06:28:19;;;;;;;4.73;1.10;;;12.30;99.90;;;;;;5089088;28;20616;-78
2022/05/28 06:30:47;;;;;;;2.73;1.57;;;12.00;99.90;;;;;;5090868;28;20214;-77
2022/05/28 06:33:13;;;;;;;7.47;1.70;;;12.00;99.90;;;;;;5082102;28;20309;-77
2022/05/28 06:35:38;;;;;;;4.10;1.30;;;12.60;99.90;;;;;;5090018;28;20285;-78
2022/05/28 06:38:04;;;;;;;3.70;1.83;;;12.80;99.90;;;;;;5090027;28;20177;-77
2022/05/28 06:40:31;;;;;;;4.50;1.47;;;12.60;99.90;;;;;;5090758;28;20190;-76
2022/05/28 06:42:57;;;;;;;6.50;1.50;;;12.40;99.90;;;;;;5091384;28;20289;-77
2022/05/28 06:45:24;;;;;;;4.37;1.90;;;12.30;99.90;;;;;;5089338;28;20221;-77
2022/05/28 06:47:50;;;;;;;3.90;1.37;;;12.60;99.90;;;;;;5088958;28;20285;-77
2022/05/28 06:53:02;;;;;;;4.60;1.37;;;12.60;99.90;;;;;;5094304;28;20177;-77
2022/05/28 06:55:27;;;;;;;4.63;1.63;;;12.50;99.90;;;;;;5093695;28;20171;-75
2022/05/28 06:57:53;;;;;;;6.73;1.73;;;12.30;99.90;;;;;;5092782;28;20697;-77
2022/05/28 07:00:20;;;;;;;4.50;1.47;;;12.10;99.90;;;;;;5092820;28;20317;-77
2022/05/28 07:02:45;;;;;;;10.10;2.97;;;12.40;99.90;;;;;;5084818;28;20190;-76
2022/05/28 07:05:13;;;;;;;8.30;2.07;;;12.80;99.90;;;;;;5094575;28;20179;-78
2022/05/28 07:07:38;;;;;;;4.30;1.50;;;13.40;99.90;;;;;;5093477;28;20659;-76
2022/05/28 07:10:05;;;;;;;7.63;2.23;;;14.00;99.90;;;;;;5093352;28;20203;-75
2022/05/28 07:12:31;;;;;;;7.13;1.52;;;14.50;99.90;;;;;;5092749;28;20293;-74
2022/05/28 07:14:56;;;;;;;3.97;1.60;;;15.20;99.90;;;;;;5094402;28;20198;-75
2022/05/28 07:17:22;;;;;;;6.22;1.58;;;15.70;99.90;;;;;;5092753;28;20202;-77
2022/05/28 07:19:49;;;;;;;4.00;1.50;;;14.80;99.90;;;;;;5108511;22;20214;-71
2022/05/28 07:22:15;;;;;;;5.80;1.88;;;14.20;99.90;;;;;;5094121;28;20236;-71
2022/05/28 07:24:41;;;;;;;8.90;2.08;;;13.70;99.90;;;;;;5094015;28;20210;-71
2022/05/28 07:27:06;;;;;;;7.40;1.60;;;13.70;99.90;;;;;;5075901;28;20224;-72
2022/05/28 07:29:32;;;;;;;4.22;1.42;;;13.90;99.90;;;;;;5093342;28;20230;-71
2022/05/28 07:31:57;;;;;;;4.88;1.40;;;14.10;99.90;;;;;;5076498;28;20193;-72
2022/05/28 07:34:23;;;;;;;5.75;1.77;;;14.60;99.90;;;;;;5075702;28;20213;-72
2022/05/28 07:36:48;;;;;;;7.82;2.10;;;14.10;99.90;;;;;;5093774;28;20194;-71
2022/05/28 07:39:15;;;;;;;7.15;1.95;;;13.90;99.90;;;;;;5093182;28;20202;-72
2022/05/28 07:41:41;;;;;;;4.72;1.45;;;13.70;99.90;;;;;;5083448;28;20218;-71
2022/05/28 07:44:06;;;;;;;5.45;1.58;;;13.90;99.90;;;;;;5075589;28;20171;-72
2022/05/28 07:46:32;;;;;;;3.67;1.55;;;14.00;99.90;;;;;;5093894;28;20538;-72
2022/05/28 07:49:01;;;;;;;4.22;1.25;;;14.30;99.90;;;;;;5092941;28;20706;-72
2022/05/28 07:51:26;;;;;;;5.80;1.70;;;15.20;99.90;;;;;;5075398;28;20209;-72
2022/05/28 07:53:53;;;;;;;6.30;1.90;;;15.40;99.90;;;;;;5075365;28;20198;-72
2022/05/28 07:56:19;;;;;;;7.05;1.63;;;15.50;99.90;;;;;;5075347;28;20226;-71
2022/05/28 07:58:44;;;;;;;4.32;1.48;;;15.10;99.90;;;;;;5093319;28;20259;-71
2022/05/28 08:01:21;;;;;;;5.45;1.85;;;14.60;99.90;;;;;;5075039;28;20687;-71
2022/05/28 08:03:47;;;;;;;5.85;2.00;;;14.70;99.90;;;;;;5074817;28;20205;-71
2022/05/28 08:06:12;;;;;;;6.45;1.70;;;15.60;99.90;;;;;;5075186;28;20548;-70
2022/05/28 08:08:38;;;;;;;3.92;1.50;;;17.30;99.90;;;;;;5092268;28;20608;-69
2022/05/28 08:11:03;;;;;;;4.68;1.70;;;17.10;99.90;;;;;;5064891;28;20206;-72
2022/05/28 08:13:29;;;;;;;4.82;1.55;;;16.20;99.90;;;;;;5075661;28;20270;-69
2022/05/28 08:15:55;;;;;;;6.28;1.98;;;15.60;99.90;;;;;;5075065;28;20229;-69
2022/05/28 08:18:23;;;;;;;5.25;1.77;;;15.70;99.90;;;;;;5092609;28;20603;-72
2022/05/28 08:23:33;;;;;;;7.18;2.00;;;16.30;99.90;;;;;;5093125;28;20263;-70
2022/05/28 08:25:59;;;;;;;4.90;1.75;;;16.90;99.90;;;;;;5093037;28;20175;-71
2022/05/28 08:28:25;;;;;;;4.20;1.60;;;16.10;99.90;;;;;;5074337;28;20261;-70
2022/05/28 08:30:50;;;;;;;8.38;2.13;;;15.40;99.90;;;;;;5092581;28;20206;-71
2022/05/28 08:33:18;;;;;;;5.20;1.60;;;14.80;99.90;;;;;;5092841;28;20195;-70
2022/05/28 08:35:44;;;;;;;8.88;2.47;;;14.60;99.90;;;;;;5092709;28;20206;-70
2022/05/28 08:38:15;;;;;;;6.28;1.80;;;14.60;99.90;;;;;;5073551;28;20166;-71
2022/05/28 08:40:49;;;;;;;6.40;1.73;;;14.50;99.90;;;;;;5083211;28;20229;-70
2022/05/28 08:43:17;;;;;;;7.47;1.92;;;15.30;99.90;;;;;;5074694;28;20576;-70
2022/05/28 08:45:45;;;;;;;4.97;1.52;;;16.90;99.90;;;;;;5074420;28;20198;-70
2022/05/28 08:48:23;;;;;;;4.25;1.45;;;17.60;99.90;;;;;;5073460;28;20292;-71
2022/05/28 08:51:04;;;;;;;6.43;1.70;;;17.30;99.90;;;;;;5066458;28;20210;-71
2022/05/28 08:53:39;;;;;;;7.47;1.95;;;16.40;99.90;;;;;;5074193;28;20238;-70
2022/05/28 08:56:05;;;;;;;7.18;1.70;;;15.40;99.90;;;;;;5092147;28;20530;-70
2022/05/28 08:58:33;;;;;;;5.20;2.00;;;14.80;99.90;;;;;;5092190;28;20170;-70
2022/05/28 09:01:08;;;;;;;3.85;1.48;;;15.50;99.90;;;;;;5073977;28;20213;-69
2022/05/28 09:03:36;;;;;;;7.35;1.67;;;16.40;99.90;;;;;;5074143;28;20583;-73
2022/05/28 09:06:07;;;;;;;5.70;1.83;;;17.80;99.90;;;;;;5092052;28;20259;-71
2022/05/28 09:08:39;;;;;;;3.95;1.38;;;17.80;99.90;;;;;;5073247;28;20203;-70
2022/05/28 09:11:26;;;;;;;6.00;1.77;;;17.00;99.90;;;;;;5063853;28;20593;-70
2022/05/28 09:13:55;;;;;;;4.80;1.67;;;16.00;99.90;;;;;;5073965;28;20163;-70
2022/05/28 09:16:30;;;;;;;3.78;1.40;;;15.40;99.90;;;;;;5073432;28;20628;-70
2022/05/28 09:19:05;;;;;;;4.88;1.58;;;14.90;99.90;;;;;;5073151;28;20212;-69
2022/05/28 09:21:31;;;;;;;2.88;1.58;;;15.00;99.90;;;;;;5091694;28;20209;-70
2022/05/28 09:24:09;;;;;;;4.63;1.70;;;15.30;99.90;;;;;;5091810;28;20202;-71
2022/05/28 09:27:16;;;;;;;8.32;2.22;;;15.60;99.90;;;;;;5073561;28;20220;-71
2022/05/28 09:30:08;;;;;;;7.38;1.80;;;15.80;99.90;;;;;;5072691;28;20233;-71
2022/05/28 09:32:44;;;;;;;4.20;1.48;;;16.20;99.90;;;;;;5073198;28;20286;-71
2022/05/28 09:35:33;;;;;;;6.70;1.58;;;16.50;99.90;;;;;;5091998;28;20262;-70
2022/05/28 09:38:07;;;;;;;7.00;1.67;;;16.30;99.90;;;;;;5091348;28;20623;-71
2022/05/28 09:40:35;;;;;;;5.80;2.13;;;16.00;99.90;;;;;;5063713;28;20663;-71
2022/05/28 09:43:59;;;;;;;5.93;1.90;;;16.30;99.90;;;;;;5091787;28;20198;-71
2022/05/28 09:46:25;;;;;;;6.70;1.73;;;17.40;99.90;;;;;;5017804;28;20578;-70
2022/05/28 09:48:59;;;;;;;4.22;1.55;;;17.20;99.90;;;;;;5090659;28;20210;-70
2022/05/28 09:51:28;;;;;;;6.80;1.70;;;17.00;99.90;;;;;;5091176;28;20205;-70
2022/05/28 09:54:23;;;;;;;6.75;1.40;;;16.80;99.90;;;;;;5073230;28;20237;-70
2022/05/28 09:57:10;;;;;;;8.20;2.05;;;16.40;99.90;;;;;;5091710;28;20567;-73
2022/05/28 09:59:46;;;;;;;6.20;1.98;;;15.40;99.90;;;;;;5072337;28;20205;-71
2022/05/28 10:05:53;;;;;;;4.90;1.77;;;15.30;99.90;;;;;;5048239;28;20302;-71
2022/05/28 10:08:19;;;;;;;9.90;2.28;;;15.80;99.90;;;;;;5072185;28;20561;-70
2022/05/28 10:10:54;;;;;;;5.90;1.58;;;16.10;99.90;;;;;;5081440;28;20194;-70
2022/05/28 10:13:21;;;;;;;4.00;1.90;;;16.50;99.90;;;;;;5073020;28;20646;-70
2022/05/28 10:15:57;;;;;;;4.78;1.48;;;16.70;99.90;;;;;;5091409;28;20690;-70
2022/05/28 10:18:39;;;;;;;7.45;1.52;;;16.20;99.90;;;;;;5090309;28;20430;-71
2022/05/28 10:21:13;;;;;;;4.70;1.77;;;16.50;99.90;;;;;;5072856;28;20213;-70
2022/05/28 10:23:41;;;;;;;8.35;2.10;;;17.00;99.90;;;;;;5072967;28;20214;-70
2022/05/28 10:26:18;;;;;;;5.78;1.80;;;17.20;99.90;;;;;;5074648;28;20186;-71
2022/05/28 10:28:48;;;;;;;6.03;1.85;;;17.20;99.90;;;;;;5095368;28;20173;-70
2022/05/28 10:31:22;;;;;;;7.55;2.20;;;17.20;99.90;;;;;;5095029;28;20553;-70
2022/05/28 10:33:48;;;;;;;9.55;3.55;;;17.40;99.90;;;;;;5076999;28;20201;-70
2022/05/28 10:36:17;;;;;;;4.50;1.77;;;17.60;99.90;;;;;;5077047;28;20281;-71
2022/05/28 10:38:43;;;;;;;5.07;2.80;;;17.90;99.90;;;;;;5076434;28;20209;-71
2022/05/28 10:41:21;;;;;;;7.05;2.08;;;17.90;99.90;;;;;;5066868;28;20222;-71
2022/05/28 10:43:49;;;;;;;4.32;1.73;;;18.00;99.90;;;;;;5077355;28;20174;-70
2022/05/28 10:46:40;;;;;;;4.93;2.05;;;18.30;99.90;;;;;;5076462;28;20205;-72
2022/05/28 10:49:43;;;;;;;5.90;1.92;;;18.50;99.90;;;;;;5075985;28;20247;-71
2022/05/28 10:52:38;;;;;;;5.88;2.00;;;17.60;99.90;;;;;;5094647;28;20202;-71
2022/05/28 10:55:11;;;;;;;6.18;2.88;;;16.80;99.90;;;;;;5032596;28;20201;-71
2022/05/28 10:58:16;;;;;;;6.50;2.15;;;16.50;99.90;;;;;;5076212;28;20283;-70
2022/05/28 11:01:03;;;;;;;7.22;2.05;;;16.10;99.90;;;;;;5076232;28;20218;-71
2022/05/28 11:03:58;;;;;;;6.70;1.92;;;16.10;99.90;;;;;;5076378;28;20198;-71
2022/05/28 11:06:33;;;;;;;7.90;2.05;;;16.40;99.90;;;;;;5076177;28;20273;-72
2022/05/28 11:09:05;;;;;;;7.88;1.80;;;16.90;99.90;;;;;;5075754;28;20201;-71
2022/05/28 11:12:04;;;;;;;2.85;1.25;;;17.40;99.90;;;;;;5066145;28;20227;-71
2022/05/28 11:14:59;;;;;;;4.30;1.70;;;17.50;99.90;;;;;;5094642;28;20285;-72
2022/05/28 11:17:56;;;;;;;8.27;1.80;;;17.30;99.90;;;;;;5075979;28;20297;-71
2022/05/28 11:20:25;;;;;;;3.30;1.73;;;16.90;99.90;;;;;;5075407;28;20557;-70
2022/05/28 11:23:08;;;;;;;6.95;2.08;;;17.20;99.90;;;;;;5076669;28;20163;-71
2022/05/28 11:26:06;;;;;;;7.55;2.58;;;17.60;99.90;;;;;;5076273;28;20214;-71
2022/05/28 11:28:52;;;;;;;6.60;1.98;;;17.90;99.90;;;;;;5094245;28;20659;-72
2022/05/28 11:31:43;;;;;;;3.95;1.70;;;17.80;99.90;;;;;;5075558;28;20210;-71
2022/05/28 11:34:27;;;;;;;7.40;2.83;;;18.20;99.90;;;;;;5075948;28;20557;-71
2022/05/28 11:37:04;;;;;;;4.82;1.77;;;18.70;99.90;;;;;;5093736;28;20674;-71
2022/05/28 11:39:47;;;;;;;7.35;2.22;;;18.40;99.90;;;;;;5092930;28;20253;-71
2022/05/28 11:42:46;;;;;;;6.25;1.90;;;17.60;99.90;;;;;;5066727;28;20210;-71
2022/05/28 11:45:23;;;;;;;7.22;1.95;;;17.20;99.90;;;;;;5065462;28;20200;-71
2022/05/28 11:48:12;;;;;;;11.13;2.40;;;16.60;99.90;;;;;;5093662;28;20607;-72
2022/05/28 11:53:38;;;;;;;4.82;1.58;;;16.10;99.90;;;;;;5093597;28;20256;-72
2022/05/28 11:56:12;;;;;;;5.80;1.60;;;16.70;99.90;;;;;;5075593;28;20200;-71
2022/05/28 11:58:44;;;;;;;2.80;1.60;;;17.10;99.90;;;;;;5093035;28;20665;-72
2022/05/28 12:01:16;;;;;;;3.72;1.52;;;17.10;99.90;;;;;;5075311;28;20232;-71
2022/05/28 12:03:44;;;;;;;6.90;1.67;;;17.10;99.90;;;;;;5093488;28;20620;-72
2022/05/28 12:06:35;;;;;;;7.00;1.77;;;17.00;99.90;;;;;;5075155;28;20213;-72
2022/05/28 12:09:18;;;;;;;2.70;1.52;;;17.00;99.90;;;;;;5092558;28;20776;-71
2022/05/28 12:12:01;;;;;;;7.90;2.05;;;17.00;99.90;;;;;;5065064;28;20304;-71
2022/05/28 12:14:31;;;;;;;6.28;1.75;;;17.00;99.90;;;;;;5093147;28;20206;-71
2022/05/28 12:17:02;;;;;;;8.07;1.63;;;16.90;99.90;;;;;;5075698;28;20197;-72
2022/05/28 12:19:28;;;;;;;2.80;1.50;;;17.10;99.90;;;;;;5074414;28;20213;-71
2022/05/28 12:22:28;;;;;;;10.35;1.90;;;17.30;99.90;;;;;;5092967;28;20208;-71
2022/05/28 12:25:06;;;;;;;3.42;1.50;;;17.30;99.90;;;;;;5037528;28;20229;-71
2022/05/28 12:27:42;;;;;;;3.15;1.52;;;17.10;99.90;;;;;;5075655;28;20251;-72
2022/05/28 12:30:22;;;;;;;4.28;2.00;;;16.80;99.90;;;;;;5092329;28;20694;-72
2022/05/28 12:32:50;;;;;;;6.13;1.70;;;16.70;99.90;;;;;;5074616;28;20209;-72
2022/05/28 12:35:15;;;;;;;6.05;1.95;;;16.00;99.90;;;;;;5074776;28;20595;-71
2022/05/28 12:37:54;;;;;;;3.78;1.83;;;15.30;99.90;;;;;;5092660;28;20192;-71
2022/05/28 12:40:45;;;;;;;3.92;0.98;;;14.80;99.90;;;;;;5064057;28;20209;-72
2022/05/28 12:43:31;;;;;;;2.35;1.25;;;14.70;99.90;;;;;;5065366;28;20331;-71
2022/05/28 12:45:58;;;;;;;3.45;1.30;;;14.80;99.90;;;;;;5074265;28;20251;-72
2022/05/28 12:48:26;;;;;;;3.50;1.50;;;15.10;99.90;;;;;;5091557;28;20205;-72
2022/05/28 12:51:21;;;;;;;3.88;1.40;;;15.40;99.90;;;;;;5073681;28;20275;-71
2022/05/28 12:54:01;;;;;;;6.43;1.65;;;15.50;99.90;;;;;;5092123;28;20705;-72
2022/05/28 12:56:47;;;;;;;7.88;1.30;;;15.80;99.90;;;;;;5073761;28;20209;-71
2022/05/28 12:59:21;;;;;;;3.75;1.60;;;15.90;99.90;;;;;;5072318;28;20284;-72
2022/05/28 13:01:57;;;;;;;4.75;1.60;;;15.90;99.90;;;;;;5074304;28;20197;-71
2022/05/28 13:04:29;;;;;;;4.82;1.60;;;16.00;99.90;;;;;;5091769;28;20628;-72
2022/05/28 13:06:58;;;;;;;6.35;1.70;;;16.20;99.90;;;;;;5073821;28;20570;-71
2022/05/28 13:09:27;;;;;;;5.45;1.15;;;16.40;99.90;;;;;;5090642;28;20229;-72
2022/05/28 13:12:10;;;;;;;3.47;1.02;;;16.30;99.90;;;;;;5081958;28;20214;-72
2022/05/28 13:15:07;;;;;;;3.33;1.08;;;16.20;99.90;;;;;;5073477;28;20266;-71
2022/05/28 13:18:11;;;;;;;7.07;1.15;;;16.10;99.90;;;;;;5091280;28;20222;-71
2022/05/28 13:20:52;;;;;;;4.07;1.17;;;16.20;99.90;;;;;;5090897;22;20225;-76
2022/05/28 13:23:36;;;;;;;6.00;1.30;;;16.40;99.90;;;;;;5092038;28;20264;-77